Airfield :
LOGIN :

Register | Disclaimer

   EN    FR    IT 

 










Legend :    VFR   Marginal VFR   IFR   Intensive IFR   Very Intensive IFR
Visi :
Ceiling :
>= 8 km
>= 3000ft
5 to 8 km
1000 to 3000 ft
1500m to 5 km
500 to 1000 ft
800 to 1500m
200 to 500 ft
< 800m
< 200 ft
Symbols :   Thunderstorms  Fog  Heavy snow  Heavy precipitations  Wind > 20 kt
SIGMETs :     Misc.  Thunderstorms  Icing  Turbulence  Mountain Waves  Volcanic Ashes






- Airport Elevation : 7 ft
- IATA code : POW


LJPZ - Portoroz

CURRENT METAR :
  • 181230Z 14007KT 100V190 9999 VCSH FEW040TCU SCT070 BKN150 13/03 Q1010

EXPIRED METARs :
  • 181200Z 13011KT 100V170 9999 VCSH FEW040TCU SCT085 BKN240 13/03 Q1009
  • 181130Z 07004KT 9999 VCSH FEW040TCU SCT085 BKN240 16/M01 Q1009
  • 181100Z 05007KT 360V090 9999 VCSH FEW040TCU SCT085 BKN240 16/M02 Q1009
  • 181030Z 35006KT 300V030 9999 FEW040 SCT090 BKN120 16/04 Q1009
  • 181000Z 36007KT 330V030 9999 FEW040 SCT090 BKN120 15/02 Q1009
  • 180930Z 04005KT 360V080 9999 FEW040 SCT100 BKN170 14/01 Q1009
  • 180900Z 27004KT 240V300 9999 FEW040 SCT100 BKN170 13/04 Q1009
  • 180830Z 27003KT 9999 FEW060 SCT090 BKN140 12/04 Q1009

TAF TAF LJPZ
Valid from the 18 at 12:00 until the 18 at 21:00 UTC


181100Z 1812/1821 01007KT 9999 FEW040
PROB40
TEMPO 1812/1817 SHRA SCT040TCU BKN050
PROB30
TEMPO 1812/1816 5000 TSRA SCT040CB BKN050



MET'MAP, your aeronautical weather chart ! - Copyright ORBIFLY December 2007 - Disclaimer

ORBIFLY MET'MAP TEAM :

Programming & Development : Alexandra Zaïnal
Original concept : Baudouin d'Aumeries
Technical & hardware support : Manuel Goepfert
Assistance : Marc-Olivier Méhu




SOURCES & CREDITS :

   NOAA